Time;durP1;ratioP1;P1;durP2;ratioP2;P2;SDS_P1;SDS_P2;PMS_P1;PMS_P2;Temp;Humidity;BMP_temperature;BMP_pressure;BME280_temperature;BME280_humidity;BME280_pressure;Samples;Min_cycle;Max_cycle;Signal;HPM_P1;HPM_P2
2021/12/25 00:00:29;;;;;;;0.93;0.70;;;-1.70;99.90;;;;;;5114164;28;20207;-61
2021/12/25 00:02:56;;;;;;;1.20;1.10;;;-1.70;99.90;;;;;;5116751;28;20231;-61
2021/12/25 00:05:23;;;;;;;3.40;1.20;;;-1.70;99.90;;;;;;5125821;28;20207;-60
2021/12/25 00:07:51;;;;;;;2.33;1.20;;;-1.80;99.90;;;;;;5128868;28;20223;-61
2021/12/25 00:10:19;;;;;;;1.33;0.80;;;-1.80;99.90;;;;;;5127391;28;20199;-60
2021/12/25 00:12:47;;;;;;;0.88;0.82;;;-1.80;99.90;;;;;;5123949;28;20574;-62
2021/12/25 00:15:15;;;;;;;0.98;0.80;;;-1.80;99.90;;;;;;5114275;28;20294;-61
2021/12/25 00:17:42;;;;;;;1.48;1.38;;;-1.90;99.90;;;;;;5114085;28;20233;-62
2021/12/25 00:20:10;;;;;;;1.80;0.95;;;-1.90;99.90;;;;;;5113920;28;20200;-61
2021/12/25 00:22:37;;;;;;;2.10;1.10;;;-2.00;99.90;;;;;;5113572;28;20234;-62
2021/12/25 00:25:05;;;;;;;1.20;1.10;;;-2.00;99.90;;;;;;5116658;28;20180;-62
2021/12/25 00:27:42;;;;;;;4.80;1.65;;;-2.00;99.90;;;;;;5118104;28;20214;-62
2021/12/25 00:30:18;;;;;;;0.85;0.85;;;-1.90;99.90;;;;;;5118131;28;20194;-60
2021/12/25 00:32:54;;;;;;;1.42;1.02;;;-2.00;99.90;;;;;;5117848;28;20255;-61
2021/12/25 00:35:22;;;;;;;1.10;1.00;;;-2.00;99.90;;;;;;5118853;28;20266;-61
2021/12/25 00:37:50;;;;;;;1.80;0.90;;;-1.90;99.90;;;;;;5117482;28;20195;-61
2021/12/25 00:40:18;;;;;;;1.05;0.95;;;-1.90;99.90;;;;;;5117596;28;20288;-62
2021/12/25 00:42:47;;;;;;;1.83;1.05;;;-1.90;99.90;;;;;;5117242;28;20215;-62
2021/12/25 00:45:15;;;;;;;1.30;1.00;;;-1.90;99.90;;;;;;5117496;28;20203;-61
2021/12/25 00:47:42;;;;;;;1.00;0.80;;;-1.90;99.90;;;;;;5117769;28;20631;-61
2021/12/25 00:50:10;;;;;;;5.78;1.20;;;-1.90;99.90;;;;;;5117251;28;20200;-61
2021/12/25 00:52:37;;;;;;;3.00;1.20;;;-1.90;99.90;;;;;;5117589;28;20250;-61
2021/12/25 00:55:07;;;;;;;2.63;1.50;;;-1.80;99.90;;;;;;5117541;28;20226;-62
2021/12/25 00:57:35;;;;;;;2.05;0.80;;;-1.80;99.90;;;;;;5117455;28;20245;-62
2021/12/25 01:00:09;;;;;;;1.20;0.90;;;-1.80;99.90;;;;;;5117402;28;20210;-62
2021/12/25 01:02:38;;;;;;;1.05;0.88;;;-1.80;99.90;;;;;;5117332;28;20211;-62
2021/12/25 01:05:06;;;;;;;2.35;1.08;;;-1.80;99.90;;;;;;5117213;28;20673;-62
2021/12/25 01:07:33;;;;;;;3.20;1.10;;;-1.90;99.90;;;;;;5117887;28;20214;-60
2021/12/25 01:10:02;;;;;;;2.47;1.00;;;-1.90;99.90;;;;;;5118589;28;20204;-62
2021/12/25 01:12:35;;;;;;;1.55;0.95;;;-2.00;99.90;;;;;;5117407;28;20564;-62
2021/12/25 01:15:07;;;;;;;2.22;1.63;;;-2.00;99.90;;;;;;5117477;28;20307;-62
2021/12/25 01:26:06;;;;;;;1.05;0.85;;;-2.20;99.90;;;;;;5117414;28;20179;-62
2021/12/25 01:31:35;;;;;;;1.95;0.90;;;-2.30;99.90;;;;;;5117580;28;20685;-62
2021/12/25 01:34:39;;;;;;;1.02;0.93;;;-2.30;99.90;;;;;;5121153;28;20269;-62
2021/12/25 01:37:15;;;;;;;3.20;0.95;;;-2.40;99.90;;;;;;5120954;28;20210;-61
2021/12/25 01:39:54;;;;;;;2.25;0.95;;;-2.40;99.90;;;;;;5118011;28;20192;-61
2021/12/25 01:47:49;;;;;;;4.35;1.15;;;-2.50;99.90;;;;;;5117042;28;20178;-61
2021/12/25 01:50:19;;;;;;;2.33;1.00;;;-2.60;99.90;;;;;;5117304;28;20672;-61
2021/12/25 01:52:46;;;;;;;1.88;1.08;;;-2.60;99.90;;;;;;5119621;28;20219;-61
2021/12/25 01:55:16;;;;;;;1.40;0.68;;;-2.70;99.90;;;;;;5117857;28;20631;-62
2021/12/25 01:57:43;;;;;;;0.88;0.88;;;-2.70;99.90;;;;;;5117725;28;20207;-61
2021/12/25 02:00:15;;;;;;;2.83;1.20;;;-2.70;99.90;;;;;;5120261;28;20207;-61
2021/12/25 02:02:42;;;;;;;0.90;0.90;;;-2.70;99.90;;;;;;5127088;28;20220;-62
2021/12/25 02:05:11;;;;;;;4.50;1.20;;;-2.70;99.90;;;;;;5119153;28;20200;-60
2021/12/25 02:07:38;;;;;;;1.60;1.20;;;-2.80;99.90;;;;;;5117737;28;20200;-61
2021/12/25 02:10:06;;;;;;;1.73;0.80;;;-2.80;99.90;;;;;;5116748;28;20218;-61
2021/12/25 02:12:34;;;;;;;3.28;0.90;;;-2.80;99.90;;;;;;5116126;28;20207;-62
2021/12/25 02:15:07;;;;;;;0.80;0.80;;;-2.80;99.90;;;;;;5116162;28;20218;-61
2021/12/25 02:17:51;;;;;;;0.95;0.90;;;-2.80;99.90;;;;;;5116323;28;20194;-61
2021/12/25 02:20:27;;;;;;;1.27;0.95;;;-2.80;99.90;;;;;;5116325;28;20252;-61
2021/12/25 02:23:00;;;;;;;1.60;1.10;;;-2.90;99.90;;;;;;5116931;28;20721;-61
2021/12/25 02:25:28;;;;;;;1.23;0.82;;;-2.90;99.90;;;;;;5115971;28;20282;-61
2021/12/25 02:27:55;;;;;;;1.30;1.20;;;-2.90;99.90;;;;;;5116102;28;20565;-62
2021/12/25 02:30:22;;;;;;;1.50;1.25;;;-3.00;99.90;;;;;;5116054;28;20203;-61
2021/12/25 02:32:50;;;;;;;0.88;0.80;;;-3.00;99.90;;;;;;5115271;28;20226;-61
2021/12/25 02:35:18;;;;;;;1.70;0.88;;;-3.00;99.90;;;;;;5115422;28;20226;-61
2021/12/25 02:37:46;;;;;;;1.83;1.20;;;-3.00;99.90;;;;;;5115506;28;20226;-61
2021/12/25 02:40:15;;;;;;;3.55;1.20;;;-3.00;99.90;;;;;;5115173;28;20199;-63
2021/12/25 02:42:42;;;;;;;2.47;1.02;;;-3.00;99.90;;;;;;5115484;28;20264;-61
2021/12/25 02:45:16;;;;;;;1.00;1.00;;;-3.10;99.90;;;;;;5115387;28;20203;-62
2021/12/25 02:47:44;;;;;;;2.22;1.15;;;-3.10;99.90;;;;;;5114343;28;20202;-61
2021/12/25 02:50:12;;;;;;;1.35;1.17;;;-3.10;99.90;;;;;;5115274;28;20204;-61
2021/12/25 02:52:39;;;;;;;1.13;0.75;;;-3.10;99.90;;;;;;5114886;28;20247;-61
2021/12/25 02:55:08;;;;;;;1.70;0.98;;;-3.10;99.90;;;;;;5114907;28;20227;-61
2021/12/25 02:57:36;;;;;;;5.85;1.10;;;-3.20;99.90;;;;;;5115223;28;20208;-62
2021/12/25 03:00:03;;;;;;;1.83;0.80;;;-3.20;99.90;;;;;;5115101;28;20211;-61
2021/12/25 03:02:30;;;;;;;3.65;1.05;;;-3.20;99.90;;;;;;5115143;28;20204;-61
2021/12/25 03:04:57;;;;;;;3.08;1.10;;;-3.20;99.90;;;;;;5115071;28;20199;-61
2021/12/25 03:07:24;;;;;;;1.10;1.00;;;-3.30;99.90;;;;;;5114707;28;20207;-61
2021/12/25 03:09:51;;;;;;;1.75;1.10;;;-3.30;99.90;;;;;;5115378;28;20207;-61
2021/12/25 03:12:28;;;;;;;2.03;1.20;;;-3.30;99.90;;;;;;5115075;28;20211;-61
2021/12/25 03:15:05;;;;;;;2.20;1.20;;;-3.30;99.90;;;;;;5115137;28;20270;-61
2021/12/25 03:17:34;;;;;;;2.20;0.98;;;-3.30;99.90;;;;;;5115532;28;20299;-61
2021/12/25 03:20:01;;;;;;;1.98;0.95;;;-3.40;99.90;;;;;;5114727;28;20203;-61
2021/12/25 03:22:28;;;;;;;1.55;0.93;;;-3.40;99.90;;;;;;5114628;28;20199;-62
2021/12/25 03:24:55;;;;;;;1.65;1.10;;;-3.40;99.90;;;;;;5115648;28;20180;-61
2021/12/25 03:27:24;;;;;;;1.20;0.90;;;-3.40;99.90;;;;;;5115208;28;20208;-61
2021/12/25 03:29:51;;;;;;;2.78;1.20;;;-3.40;99.90;;;;;;5115691;28;20204;-61
2021/12/25 03:32:18;;;;;;;2.45;1.20;;;-3.50;99.90;;;;;;5116456;28;20207;-62
2021/12/25 03:34:45;;;;;;;1.13;0.82;;;-3.50;99.90;;;;;;5115743;28;20717;-60
2021/12/25 03:37:12;;;;;;;1.95;0.95;;;-3.50;99.90;;;;;;5115372;28;20550;-61
2021/12/25 03:39:39;;;;;;;3.92;1.20;;;-3.50;99.90;;;;;;5114932;28;20200;-61
2021/12/25 03:42:07;;;;;;;1.33;1.20;;;-3.60;99.90;;;;;;5114850;28;20200;-61
2021/12/25 03:44:35;;;;;;;1.30;1.00;;;-3.60;99.90;;;;;;5114513;28;20230;-60
2021/12/25 03:47:12;;;;;;;1.50;1.10;;;-3.60;99.90;;;;;;5114556;28;20234;-61
2021/12/25 03:57:54;;;;;;;1.40;1.23;;;-3.70;99.90;;;;;;5114538;28;20178;-61
2021/12/25 04:00:29;;;;;;;1.10;1.00;;;-3.80;99.90;;;;;;5114264;28;20188;-60
2021/12/25 04:03:00;;;;;;;5.57;1.30;;;-3.80;99.90;;;;;;5114594;28;20246;-61
2021/12/25 04:05:31;;;;;;;3.78;1.33;;;-3.80;99.90;;;;;;5114429;28;20180;-61
2021/12/25 04:09:10;;;;;;;1.77;1.30;;;-3.80;99.90;;;;;;5092123;27;20562;-60
2021/12/25 04:11:40;;;;;;;0.90;0.90;;;-3.80;99.90;;;;;;5091557;28;20187;-61
2021/12/25 04:14:07;;;;;;;1.40;1.17;;;-3.90;99.90;;;;;;5091746;28;20299;-60
2021/12/25 04:16:34;;;;;;;3.25;1.60;;;-3.90;99.90;;;;;;5092117;28;20212;-61
2021/12/25 04:19:02;;;;;;;2.17;1.13;;;-3.90;99.90;;;;;;5092029;28;20201;-60
2021/12/25 04:24:01;;;;;;;1.20;1.00;;;-3.90;99.90;;;;;;5073884;22;20297;-54
2021/12/25 04:26:30;;;;;;;1.40;1.10;;;-3.90;99.90;;;;;;5050351;28;20202;-54
2021/12/25 04:29:05;;;;;;;2.00;1.25;;;-3.90;99.90;;;;;;5049932;28;20712;-54
2021/12/25 04:31:48;;;;;;;1.13;0.95;;;-4.00;99.90;;;;;;5049965;28;20182;-54
2021/12/25 04:42:53;;;;;;;2.17;1.13;;;-4.00;99.90;;;;;;5029896;28;20225;-53
2021/12/25 04:49:07;;;;;;;4.18;1.65;;;-4.10;99.90;;;;;;5030134;28;20305;-53
2021/12/25 05:02:34;;;;;;;2.88;1.42;;;-4.20;99.90;;;;;;5029433;28;20237;-52
2021/12/25 05:05:04;;;;;;;2.55;1.25;;;-4.20;99.90;;;;;;5029500;28;20191;-52
2021/12/25 05:07:31;;;;;;;1.85;1.30;;;-4.30;99.90;;;;;;5029968;28;20310;-52
2021/12/25 05:09:59;;;;;;;4.65;0.98;;;-4.30;99.90;;;;;;5029606;28;20210;-52
2021/12/25 05:12:26;;;;;;;1.25;0.90;;;-4.30;99.90;;;;;;5029333;28;20227;-52
2021/12/25 05:14:54;;;;;;;1.15;1.05;;;-4.30;99.90;;;;;;5029265;28;20206;-52
2021/12/25 05:17:21;;;;;;;3.72;1.20;;;-4.30;99.90;;;;;;5029189;28;20237;-52
2021/12/25 05:19:48;;;;;;;1.10;1.00;;;-4.30;99.90;;;;;;5019390;28;20573;-52
2021/12/25 05:22:17;;;;;;;1.85;1.17;;;-4.30;99.90;;;;;;5015735;28;20583;-52
2021/12/25 05:24:44;;;;;;;3.13;1.10;;;-4.30;99.90;;;;;;5016240;28;20254;-53
2021/12/25 05:27:13;;;;;;;1.85;1.52;;;-4.30;99.90;;;;;;5016366;28;20214;-53
2021/12/25 05:29:45;;;;;;;1.80;1.25;;;-4.40;99.90;;;;;;5016252;28;20206;-53
2021/12/25 05:32:14;;;;;;;3.05;0.95;;;-4.40;99.90;;;;;;5016317;28;20223;-52
2021/12/25 05:34:41;;;;;;;4.47;1.40;;;-4.40;99.90;;;;;;5015999;28;20207;-52
2021/12/25 05:37:08;;;;;;;1.25;1.08;;;-4.40;99.90;;;;;;5016165;28;20648;-52
2021/12/25 05:39:35;;;;;;;1.45;1.35;;;-4.40;99.90;;;;;;5016069;28;20207;-52
2021/12/25 05:42:03;;;;;;;9.23;1.40;;;-4.50;99.90;;;;;;5016655;28;20245;-53
2021/12/25 05:44:30;;;;;;;1.45;1.10;;;-4.50;99.90;;;;;;5015784;28;20210;-53
2021/12/25 05:46:57;;;;;;;1.45;1.15;;;-4.50;99.90;;;;;;5015985;28;20210;-53
2021/12/25 05:49:26;;;;;;;1.17;1.08;;;-4.50;99.90;;;;;;5015596;28;20202;-53
2021/12/25 05:51:53;;;;;;;1.27;0.90;;;-4.50;99.90;;;;;;5015383;28;20597;-53
2021/12/25 05:54:20;;;;;;;2.25;1.00;;;-4.50;99.90;;;;;;5015720;28;20199;-52
2021/12/25 05:56:47;;;;;;;1.60;1.20;;;-4.50;99.90;;;;;;5015734;28;20218;-52
2021/12/25 05:59:14;;;;;;;1.00;0.90;;;-4.50;99.90;;;;;;5015910;28;20210;-54
2021/12/25 06:01:41;;;;;;;3.63;1.35;;;-4.50;99.90;;;;;;5015191;28;20206;-53
2021/12/25 06:04:08;;;;;;;1.60;1.10;;;-4.50;99.90;;;;;;5015480;28;20230;-53
2021/12/25 06:06:37;;;;;;;1.98;1.00;;;-4.50;99.90;;;;;;5015098;28;20203;-53
2021/12/25 06:09:07;;;;;;;3.40;1.05;;;-4.60;99.90;;;;;;5016350;28;20218;-52
2021/12/25 06:11:34;;;;;;;3.80;1.40;;;-4.60;99.90;;;;;;5017233;28;20281;-52
2021/12/25 06:14:09;;;;;;;1.02;0.93;;;-4.60;99.90;;;;;;5014886;28;20281;-53
2021/12/25 06:16:36;;;;;;;1.50;1.40;;;-4.60;99.90;;;;;;5015363;28;20554;-53
2021/12/25 06:19:04;;;;;;;1.40;1.30;;;-4.60;99.90;;;;;;5015317;28;20203;-53
2021/12/25 06:21:31;;;;;;;3.35;1.02;;;-4.60;99.90;;;;;;5014932;28;20207;-52
2021/12/25 06:24:02;;;;;;;2.95;0.95;;;-4.70;99.90;;;;;;5014696;28;20258;-52
2021/12/25 06:26:29;;;;;;;1.88;0.93;;;-4.70;99.90;;;;;;5015247;28;20194;-52
2021/12/25 06:28:56;;;;;;;2.00;1.02;;;-4.70;99.90;;;;;;5014978;28;20567;-53
2021/12/25 06:31:24;;;;;;;2.20;1.15;;;-4.70;99.90;;;;;;5013719;28;20206;-53
2021/12/25 06:33:52;;;;;;;1.85;1.00;;;-4.70;99.90;;;;;;5014882;28;20227;-53
2021/12/25 06:36:19;;;;;;;1.30;1.20;;;-4.70;99.90;;;;;;5014935;28;20214;-53
2021/12/25 06:38:46;;;;;;;1.30;0.80;;;-4.70;99.90;;;;;;5014507;28;20572;-53
2021/12/25 06:41:15;;;;;;;1.75;1.15;;;-4.70;99.90;;;;;;5019390;28;20222;-55
2021/12/25 06:43:42;;;;;;;0.85;0.85;;;-4.70;99.90;;;;;;5024197;28;20230;-56
2021/12/25 06:46:09;;;;;;;0.93;0.82;;;-4.70;99.90;;;;;;5016743;28;20206;-54
2021/12/25 06:48:37;;;;;;;2.20;1.02;;;-4.70;99.90;;;;;;5014817;28;20230;-53
2021/12/25 06:51:04;;;;;;;0.93;0.90;;;-4.70;99.90;;;;;;5014470;28;20214;-54
2021/12/25 06:53:31;;;;;;;1.60;0.88;;;-4.70;99.90;;;;;;5014525;28;20231;-53
2021/12/25 06:55:58;;;;;;;1.40;1.30;;;-4.80;99.90;;;;;;5014358;28;20701;-53
2021/12/25 06:58:27;;;;;;;1.40;1.25;;;-4.80;99.90;;;;;;5014255;28;20207;-53
2021/12/25 07:00:54;;;;;;;2.10;1.23;;;-4.80;99.90;;;;;;5014455;28;20601;-53
2021/12/25 07:03:21;;;;;;;1.50;1.40;;;-4.80;99.90;;;;;;5014086;28;20734;-53
2021/12/25 07:05:48;;;;;;;1.15;0.88;;;-4.80;99.90;;;;;;5014064;28;20199;-53
2021/12/25 07:08:15;;;;;;;3.00;2.10;;;-4.90;99.90;;;;;;5013986;28;20226;-53
2021/12/25 07:10:42;;;;;;;1.38;1.23;;;-4.90;99.90;;;;;;5014344;28;20209;-54
2021/12/25 07:13:16;;;;;;;1.63;1.05;;;-4.90;99.90;;;;;;5013843;28;20223;-53
2021/12/25 07:15:44;;;;;;;1.15;1.05;;;-4.90;99.90;;;;;;5014242;28;20198;-53
2021/12/25 07:18:12;;;;;;;3.33;1.25;;;-4.90;99.90;;;;;;5013919;28;20203;-53
2021/12/25 07:20:39;;;;;;;1.10;1.00;;;-4.90;99.90;;;;;;5013888;28;20206;-53
2021/12/25 07:23:06;;;;;;;2.75;1.45;;;-4.90;99.90;;;;;;5013663;28;20230;-53
2021/12/25 07:25:33;;;;;;;1.60;1.25;;;-4.90;99.90;;;;;;5013691;28;20203;-53
2021/12/25 07:28:01;;;;;;;1.30;0.90;;;-4.90;99.90;;;;;;5013641;28;20566;-53
2021/12/25 07:30:28;;;;;;;1.70;1.10;;;-4.90;99.90;;;;;;5013595;28;20203;-53
2021/12/25 07:32:56;;;;;;;2.80;1.27;;;-4.90;99.90;;;;;;5013931;28;20227;-53
2021/12/25 07:35:23;;;;;;;3.10;1.52;;;-4.90;99.90;;;;;;5013786;28;20686;-53
2021/12/25 07:37:50;;;;;;;2.58;1.00;;;-4.90;99.90;;;;;;5013513;28;20203;-53
2021/12/25 07:40:17;;;;;;;3.75;1.13;;;-5.00;99.90;;;;;;5013892;28;20207;-53
2021/12/25 07:42:45;;;;;;;2.15;1.42;;;-4.90;99.90;;;;;;5012887;28;20258;-53
2021/12/25 07:45:12;;;;;;;1.40;1.20;;;-4.90;99.90;;;;;;5013691;28;20207;-53
2021/12/25 07:47:46;;;;;;;1.42;1.15;;;-4.90;99.90;;;;;;5013651;28;20611;-53
2021/12/25 07:50:14;;;;;;;5.30;1.15;;;-5.00;99.90;;;;;;5013647;28;20579;-53
2021/12/25 07:52:42;;;;;;;2.88;1.27;;;-4.90;99.90;;;;;;5013580;28;20238;-53
2021/12/25 07:55:10;;;;;;;2.05;0.98;;;-4.90;99.90;;;;;;5013417;28;20199;-53
2021/12/25 07:57:37;;;;;;;2.30;1.13;;;-4.90;99.90;;;;;;5013020;28;20203;-53
2021/12/25 08:00:07;;;;;;;2.58;1.42;;;-4.90;99.90;;;;;;5013197;28;20195;-53
2021/12/25 08:02:34;;;;;;;4.63;1.85;;;-4.90;99.90;;;;;;5013087;28;20246;-53
2021/12/25 08:05:01;;;;;;;1.30;1.20;;;-4.90;99.90;;;;;;5013469;28;20273;-53
2021/12/25 08:07:30;;;;;;;2.75;1.10;;;-4.90;99.90;;;;;;5013084;28;20569;-53
2021/12/25 08:10:11;;;;;;;1.60;1.50;;;-4.80;99.90;;;;;;5013377;28;20223;-53
2021/12/25 08:12:38;;;;;;;2.55;1.67;;;-4.80;99.90;;;;;;5013432;28;20222;-52
2021/12/25 08:15:06;;;;;;;2.45;1.13;;;-4.80;99.90;;;;;;5013374;28;20210;-53
2021/12/25 08:17:33;;;;;;;1.98;1.52;;;-4.80;99.90;;;;;;5013051;28;20670;-53
2021/12/25 08:20:00;;;;;;;4.10;1.20;;;-4.80;99.90;;;;;;5013369;28;20202;-53
2021/12/25 08:22:27;;;;;;;1.65;1.02;;;-4.70;99.90;;;;;;5013028;28;20235;-53
2021/12/25 08:24:55;;;;;;;2.08;1.30;;;-4.70;99.90;;;;;;5012978;28;20572;-53
2021/12/25 08:27:23;;;;;;;1.10;0.98;;;-4.70;99.90;;;;;;5013037;28;20207;-53
2021/12/25 08:29:50;;;;;;;1.88;1.20;;;-4.60;99.90;;;;;;5013169;28;20229;-52
2021/12/25 08:32:17;;;;;;;5.22;1.13;;;-4.60;99.90;;;;;;5012769;28;20230;-52
2021/12/25 08:34:44;;;;;;;9.43;1.58;;;-4.60;99.90;;;;;;5014210;28;20207;-53
2021/12/25 08:37:12;;;;;;;2.75;1.00;;;-4.60;99.90;;;;;;5013234;28;20207;-53
2021/12/25 08:39:39;;;;;;;2.67;1.42;;;-4.50;99.90;;;;;;5013226;28;20286;-53
2021/12/25 08:42:09;;;;;;;1.25;1.00;;;-4.60;99.90;;;;;;5013092;28;20230;-52
2021/12/25 08:44:41;;;;;;;1.10;1.00;;;-4.50;99.90;;;;;;5013023;28;20205;-53
2021/12/25 08:47:13;;;;;;;4.82;0.90;;;-4.50;99.90;;;;;;5012820;28;20600;-52
2021/12/25 08:49:42;;;;;;;2.65;1.65;;;-4.50;99.90;;;;;;5012775;28;20695;-53
2021/12/25 08:52:12;;;;;;;1.60;0.90;;;-4.50;99.90;;;;;;5012798;28;20230;-52
2021/12/25 08:54:41;;;;;;;2.72;1.35;;;-4.50;99.90;;;;;;5015946;28;20210;-52
2021/12/25 08:57:09;;;;;;;3.40;1.35;;;-4.50;99.90;;;;;;5017061;28;20202;-53
2021/12/25 08:59:38;;;;;;;4.70;1.30;;;-4.50;99.90;;;;;;5016887;28;20582;-53
2021/12/25 09:02:09;;;;;;;4.13;1.63;;;-4.50;99.90;;;;;;5016454;28;20707;-52
2021/12/25 09:04:38;;;;;;;1.80;1.15;;;-4.50;99.90;;;;;;5016827;28;20242;-53
2021/12/25 09:07:05;;;;;;;1.85;1.10;;;-4.40;99.90;;;;;;5016575;28;20210;-53
2021/12/25 09:09:33;;;;;;;1.10;1.00;;;-4.40;99.90;;;;;;5016147;28;20234;-53
2021/12/25 09:12:00;;;;;;;1.92;1.20;;;-4.50;99.90;;;;;;5017075;28;20297;-53
2021/12/25 09:14:28;;;;;;;3.22;1.15;;;-4.50;99.90;;;;;;5016304;28;20203;-53
2021/12/25 09:16:56;;;;;;;3.38;1.10;;;-4.50;99.90;;;;;;5016880;28;20214;-53
2021/12/25 09:19:24;;;;;;;1.30;1.13;;;-4.50;99.90;;;;;;5016860;28;20222;-53
2021/12/25 09:21:52;;;;;;;3.03;1.45;;;-4.50;99.90;;;;;;5016414;28;20207;-53
2021/12/25 09:24:20;;;;;;;2.30;1.50;;;-4.50;99.90;;;;;;5016113;28;20640;-53
2021/12/25 09:26:47;;;;;;;4.38;1.25;;;-4.60;99.90;;;;;;5016360;28;20203;-53
2021/12/25 09:29:14;;;;;;;2.40;1.50;;;-4.60;99.90;;;;;;5016365;28;20219;-53
2021/12/25 09:31:42;;;;;;;2.55;1.48;;;-4.60;99.90;;;;;;5015654;28;20789;-53
2021/12/25 09:34:09;;;;;;;2.95;2.00;;;-4.60;99.90;;;;;;5015832;28;20199;-53
2021/12/25 09:36:37;;;;;;;2.65;1.20;;;-4.50;99.90;;;;;;5015677;28;20210;-53
2021/12/25 09:39:05;;;;;;;2.05;1.60;;;-4.50;99.90;;;;;;5015950;28;20203;-53
2021/12/25 09:41:33;;;;;;;1.90;1.58;;;-4.50;99.90;;;;;;5015913;28;20218;-53
2021/12/25 09:44:00;;;;;;;1.50;1.40;;;-4.50;99.90;;;;;;5015312;28;20227;-53
2021/12/25 09:46:27;;;;;;;1.40;1.30;;;-4.50;99.90;;;;;;5017618;28;20222;-53
2021/12/25 09:48:56;;;;;;;2.50;1.20;;;-4.40;99.90;;;;;;5019436;28;20234;-53
2021/12/25 09:51:23;;;;;;;1.60;1.50;;;-4.40;99.90;;;;;;5019438;28;20207;-53
2021/12/25 09:53:59;;;;;;;2.10;1.02;;;-4.40;99.90;;;;;;5018482;28;20734;-53
2021/12/25 09:56:26;;;;;;;2.10;1.10;;;-4.40;99.90;;;;;;5018378;28;20271;-53
2021/12/25 09:58:53;;;;;;;4.25;1.80;;;-4.30;99.90;;;;;;5018068;28;20210;-53
2021/12/25 10:01:33;;;;;;;2.45;1.50;;;-4.20;99.90;;;;;;5017712;28;20672;-53
2021/12/25 10:04:02;;;;;;;4.32;1.58;;;-4.10;99.90;;;;;;5016625;28;20227;-53
2021/12/25 10:06:31;;;;;;;2.65;1.30;;;-4.10;99.90;;;;;;5016580;28;20210;-53
2021/12/25 10:08:58;;;;;;;3.17;1.55;;;-4.00;99.90;;;;;;5016152;28;20219;-53
2021/12/25 10:11:26;;;;;;;1.60;1.30;;;-3.90;99.90;;;;;;5016271;28;20613;-53
2021/12/25 10:13:55;;;;;;;3.00;1.58;;;-3.90;99.90;;;;;;5015210;28;20227;-53
2021/12/25 10:16:24;;;;;;;3.05;1.30;;;-3.80;99.90;;;;;;5015375;28;20202;-53
2021/12/25 10:18:52;;;;;;;3.60;1.38;;;-3.80;99.90;;;;;;5015326;28;20199;-53
2021/12/25 10:21:24;;;;;;;3.15;1.73;;;-3.70;99.90;;;;;;5015286;28;20211;-53
2021/12/25 10:24:07;;;;;;;3.55;1.75;;;-3.70;99.90;;;;;;5054403;22;20230;-60
2021/12/25 10:26:36;;;;;;;3.13;1.60;;;-3.60;99.90;;;;;;5035994;28;20213;-60
2021/12/25 10:29:16;;;;;;;3.78;1.95;;;-3.60;99.90;;;;;;5035211;28;20559;-60
2021/12/25 10:31:44;;;;;;;1.30;1.13;;;-3.50;99.90;;;;;;5035328;28;20182;-61
2021/12/25 10:34:15;;;;;;;3.42;1.80;;;-3.40;99.90;;;;;;5043363;28;20234;-60
2021/12/25 10:36:44;;;;;;;7.03;2.10;;;-3.30;99.90;;;;;;5041977;28;20206;-60
2021/12/25 10:39:13;;;;;;;5.65;1.90;;;-3.30;99.90;;;;;;5035181;28;20227;-61
2021/12/25 10:41:52;;;;;;;2.35;1.48;;;-3.20;99.90;;;;;;5035224;28;20206;-60
2021/12/25 10:44:22;;;;;;;4.65;1.38;;;-3.10;99.90;;;;;;5035491;28;20222;-61
2021/12/25 10:46:55;;;;;;;2.83;1.48;;;-3.10;99.90;;;;;;5034959;28;20187;-60
2021/12/25 10:49:23;;;;;;;3.75;1.80;;;-3.00;99.90;;;;;;5034624;28;20217;-60
2021/12/25 10:51:52;;;;;;;2.05;1.00;;;-3.00;99.90;;;;;;5034661;28;20203;-60
2021/12/25 10:54:19;;;;;;;8.20;1.70;;;-2.90;99.90;;;;;;5034704;28;20229;-60
2021/12/25 10:56:49;;;;;;;5.47;1.50;;;-2.90;99.90;;;;;;5034330;28;20198;-59
2021/12/25 10:59:18;;;;;;;3.63;2.10;;;-2.80;99.90;;;;;;5034258;28;20198;-60
2021/12/25 11:01:48;;;;;;;2.50;1.70;;;-2.70;99.90;;;;;;5034283;28;20213;-61
2021/12/25 11:04:31;;;;;;;2.17;1.15;;;-2.60;99.90;;;;;;5034364;28;20227;-60
2021/12/25 11:07:11;;;;;;;1.50;1.23;;;-2.60;99.90;;;;;;5034589;28;20266;-61
2021/12/25 11:09:38;;;;;;;1.83;1.45;;;-2.60;99.90;;;;;;5034054;28;20203;-60
2021/12/25 11:12:20;;;;;;;2.33;1.20;;;-2.60;99.70;;;;;;5034093;28;20206;-60
2021/12/25 11:14:49;;;;;;;1.88;1.35;;;-2.60;99.20;;;;;;5034096;28;20191;-60
2021/12/25 11:17:24;;;;;;;5.00;1.90;;;-2.60;98.80;;;;;;5034446;28;20629;-60
2021/12/25 11:19:58;;;;;;;2.25;1.63;;;-2.60;98.50;;;;;;5034390;28;20204;-61
2021/12/25 11:22:28;;;;;;;1.30;1.20;;;-2.60;98.30;;;;;;5034090;28;20229;-60
2021/12/25 11:24:58;;;;;;;2.80;1.27;;;-2.60;97.60;;;;;;5034264;28;20194;-60
2021/12/25 11:27:25;;;;;;;5.78;1.27;;;-2.60;97.00;;;;;;5033866;28;20260;-60
2021/12/25 11:29:53;;;;;;;3.88;1.50;;;-2.50;97.00;;;;;;5034223;28;20536;-61
2021/12/25 11:32:21;;;;;;;7.82;1.60;;;-2.50;97.10;;;;;;5034320;28;20206;-60
2021/12/25 11:34:51;;;;;;;3.17;1.25;;;-2.40;97.00;;;;;;5034178;28;20206;-62
2021/12/25 11:37:18;;;;;;;2.72;1.60;;;-2.30;96.90;;;;;;5034352;28;20206;-61
2021/12/25 11:39:52;;;;;;;9.43;1.80;;;-2.30;96.70;;;;;;5034425;28;20198;-59
2021/12/25 11:42:19;;;;;;;1.60;1.33;;;-2.30;96.70;;;;;;5034014;28;20553;-58
2021/12/25 11:44:51;;;;;;;8.00;1.60;;;-2.20;96.50;;;;;;5034645;28;20281;-61
2021/12/25 11:47:36;;;;;;;2.72;1.40;;;-2.20;96.20;;;;;;5034174;28;20217;-61
2021/12/25 11:50:09;;;;;;;2.45;1.30;;;-2.20;96.20;;;;;;5034857;28;20213;-59
2021/12/25 11:52:42;;;;;;;3.40;1.00;;;-2.20;95.90;;;;;;5034144;28;20234;-60
2021/12/25 11:55:50;;;;;;;4.10;1.27;;;-2.20;95.80;;;;;;5033811;28;20190;-62
2021/12/25 11:58:40;;;;;;;6.18;1.55;;;-2.10;95.70;;;;;;5034047;28;20290;-62
2021/12/25 12:01:18;;;;;;;3.75;1.13;;;-2.10;95.10;;;;;;5033308;28;20635;-61
2021/12/25 12:03:52;;;;;;;2.08;1.20;;;-2.10;95.00;;;;;;5033755;28;20233;-61
2021/12/25 12:06:19;;;;;;;2.67;1.60;;;-2.10;94.30;;;;;;5033726;28;20190;-61
2021/12/25 12:09:09;;;;;;;3.65;1.30;;;-2.20;93.80;;;;;;5033298;28;20235;-59
2021/12/25 12:11:40;;;;;;;7.90;1.95;;;-2.20;93.90;;;;;;5033543;28;20187;-62
2021/12/25 12:14:15;;;;;;;2.55;1.95;;;-2.20;93.70;;;;;;5033397;28;20226;-60
2021/12/25 12:16:44;;;;;;;6.05;1.60;;;-2.20;93.90;;;;;;5034346;28;20186;-61
2021/12/25 12:19:41;;;;;;;1.55;1.25;;;-2.20;93.80;;;;;;5034343;28;20197;-61
2021/12/25 12:25:41;;;;;;;2.30;1.45;;;-2.20;93.60;;;;;;5007343;28;20756;-60
2021/12/25 12:28:09;;;;;;;3.13;1.48;;;-2.10;93.50;;;;;;5034797;28;20209;-60
2021/12/25 12:30:56;;;;;;;2.83;1.88;;;-2.10;92.80;;;;;;5037508;28;20225;-59
2021/12/25 12:33:34;;;;;;;4.50;1.35;;;-2.10;92.60;;;;;;5037769;28;20230;-61
2021/12/25 12:36:04;;;;;;;2.35;1.33;;;-2.10;92.90;;;;;;5037553;28;20198;-61
2021/12/25 12:38:39;;;;;;;3.17;1.20;;;-2.10;92.90;;;;;;5037629;28;20202;-60
2021/12/25 12:41:27;;;;;;;1.83;0.85;;;-2.10;93.00;;;;;;5037535;28;20265;-60
2021/12/25 12:44:05;;;;;;;1.40;1.30;;;-2.00;93.10;;;;;;5037015;28;20229;-60
2021/12/25 12:46:55;;;;;;;4.90;1.83;;;-2.00;93.10;;;;;;5037185;28;20191;-60
2021/12/25 12:49:23;;;;;;;4.90;1.67;;;-1.90;93.20;;;;;;5037116;28;20183;-60
2021/12/25 12:52:22;;;;;;;2.08;1.92;;;-1.90;93.00;;;;;;5036693;28;20198;-60
2021/12/25 12:54:52;;;;;;;3.67;1.30;;;-1.90;92.80;;;;;;5036665;28;20198;-60
2021/12/25 12:57:24;;;;;;;5.15;1.90;;;-1.90;92.70;;;;;;5036613;28;20304;-60
2021/12/25 12:59:53;;;;;;;6.85;2.72;;;-2.00;92.70;;;;;;5037049;28;20186;-60
2021/12/25 13:02:22;;;;;;;5.63;1.50;;;-2.00;92.80;;;;;;5036661;28;20615;-60
2021/12/25 13:04:52;;;;;;;4.70;2.60;;;-2.00;93.00;;;;;;5036657;28;20203;-58
2021/12/25 13:07:22;;;;;;;1.85;1.27;;;-1.90;93.10;;;;;;5036633;28;20183;-61
2021/12/25 13:10:00;;;;;;;4.55;1.48;;;-1.90;92.90;;;;;;5036394;28;20232;-60
2021/12/25 13:12:43;;;;;;;2.42;1.63;;;-1.80;92.90;;;;;;5036468;28;20314;-61
2021/12/25 13:15:15;;;;;;;2.17;1.20;;;-1.80;92.90;;;;;;5036402;28;20612;-59
2021/12/25 13:17:53;;;;;;;3.92;1.55;;;-1.70;92.70;;;;;;5036499;28;20241;-60
2021/12/25 13:20:33;;;;;;;2.35;1.30;;;-1.70;92.40;;;;;;5036630;28;20187;-60
2021/12/25 13:23:04;;;;;;;3.55;1.80;;;-1.80;92.30;;;;;;5036318;28;20577;-60
2021/12/25 13:25:32;;;;;;;5.10;2.15;;;-1.90;92.30;;;;;;5036411;28;20186;-61
2021/12/25 13:28:00;;;;;;;3.75;1.73;;;-1.90;92.50;;;;;;5036250;28;20216;-60
2021/12/25 13:30:28;;;;;;;1.30;1.15;;;-1.90;92.60;;;;;;5036093;28;20592;-60
2021/12/25 13:32:56;;;;;;;3.42;1.70;;;-1.90;92.40;;;;;;5036067;28;20233;-60
2021/12/25 13:35:24;;;;;;;3.50;1.80;;;-1.80;92.60;;;;;;5035799;28;20198;-60
2021/12/25 13:37:59;;;;;;;1.58;1.40;;;-1.70;92.70;;;;;;5035972;28;20198;-59
2021/12/25 13:40:28;;;;;;;2.35;1.50;;;-1.70;92.70;;;;;;5035330;28;20190;-61
2021/12/25 13:42:56;;;;;;;2.60;1.80;;;-1.60;92.70;;;;;;5047857;28;20226;-60
2021/12/25 13:45:23;;;;;;;3.65;1.52;;;-1.60;92.30;;;;;;5049803;28;20290;-60
2021/12/25 13:47:56;;;;;;;1.92;1.20;;;-1.70;91.90;;;;;;5051275;28;20225;-60
2021/12/25 13:50:23;;;;;;;2.20;1.50;;;-1.80;91.10;;;;;;5050932;28;20214;-60
2021/12/25 13:52:54;;;;;;;4.43;1.77;;;-1.90;91.10;;;;;;5046405;28;20230;-60
2021/12/25 13:55:23;;;;;;;3.15;1.90;;;-2.00;91.60;;;;;;5037300;28;20187;-61
2021/12/25 13:57:55;;;;;;;4.82;1.90;;;-2.10;91.60;;;;;;5036760;28;20205;-61